Time;durP1;ratioP1;P1;durP2;ratioP2;P2;SDS_P1;SDS_P2;PMS_P1;PMS_P2;Temp;Humidity;BMP_temperature;BMP_pressure;BME280_temperature;BME280_humidity;BME280_pressure;Samples;Min_cycle;Max_cycle;Signal;HPM_P1;HPM_P2
2020/12/17 00:00:33;;;;;;;10.68;5.57;;;8.90;99.90;;;;;;5029434;28;20108;-48
2020/12/17 00:02:58;;;;;;;12.68;7.50;;;9.00;99.90;;;;;;5029795;28;20528;-48
2020/12/17 00:05:24;;;;;;;12.65;6.93;;;9.00;99.90;;;;;;5022064;28;20033;-48
2020/12/17 00:07:50;;;;;;;12.57;7.95;;;8.90;99.90;;;;;;5022935;28;20462;-48
2020/12/17 00:10:15;;;;;;;14.80;8.00;;;8.90;99.90;;;;;;5029791;28;20030;-48
2020/12/17 00:12:44;;;;;;;13.23;8.43;;;8.90;99.90;;;;;;5030247;28;20625;-49
2020/12/17 00:15:14;;;;;;;15.80;7.88;;;8.90;99.90;;;;;;5028008;28;20026;-49
2020/12/17 00:17:44;;;;;;;15.80;8.60;;;8.90;99.90;;;;;;5029247;28;20029;-48
2020/12/17 00:20:11;;;;;;;13.85;7.47;;;8.90;99.90;;;;;;4994418;28;20427;-39
2020/12/17 00:22:39;;;;;;;14.30;9.00;;;8.80;99.90;;;;;;5028088;28;20378;-36
2020/12/17 00:25:05;;;;;;;15.85;8.50;;;8.80;99.90;;;;;;5028572;28;20033;-36
2020/12/17 00:27:31;;;;;;;22.25;10.32;;;8.90;99.90;;;;;;5009583;28;20390;-36
2020/12/17 00:29:56;;;;;;;15.20;8.85;;;8.80;99.90;;;;;;5010971;28;20129;-36
2020/12/17 00:32:22;;;;;;;14.15;8.23;;;8.80;99.90;;;;;;5029666;28;20018;-35
2020/12/17 00:34:48;;;;;;;15.00;8.80;;;8.90;99.90;;;;;;5027852;28;20037;-35
2020/12/17 00:37:13;;;;;;;15.65;8.68;;;8.90;99.90;;;;;;5024883;28;20766;-36
2020/12/17 00:39:39;;;;;;;16.52;9.82;;;8.80;99.90;;;;;;5004565;28;20101;-38
2020/12/17 00:42:05;;;;;;;13.90;8.43;;;8.80;99.90;;;;;;5003274;28;20088;-36
2020/12/17 00:44:31;;;;;;;16.65;8.55;;;8.80;99.90;;;;;;5013923;28;20324;-36
2020/12/17 00:46:57;;;;;;;14.77;8.50;;;8.80;99.90;;;;;;5028549;28;20099;-36
2020/12/17 00:49:22;;;;;;;19.25;9.20;;;8.90;99.90;;;;;;5020430;28;20471;-34
2020/12/17 00:51:48;;;;;;;17.58;9.45;;;8.80;99.90;;;;;;5012327;28;20029;-36
2020/12/17 00:54:14;;;;;;;13.50;9.18;;;8.90;99.90;;;;;;5018820;28;20044;-37
2020/12/17 00:56:46;;;;;;;15.30;8.77;;;8.80;99.90;;;;;;5013716;28;20030;-36
2020/12/17 00:59:12;;;;;;;14.68;8.77;;;8.80;99.90;;;;;;5022803;28;20403;-36
2020/12/17 01:01:38;;;;;;;13.02;9.32;;;8.90;99.90;;;;;;5014421;28;20034;-37
2020/12/17 01:04:04;;;;;;;18.08;10.00;;;8.90;99.90;;;;;;5010648;28;20042;-36
2020/12/17 01:06:30;;;;;;;14.90;8.93;;;8.80;99.90;;;;;;5007676;28;20030;-36
2020/12/17 01:08:55;;;;;;;13.38;9.23;;;8.80;99.90;;;;;;5015014;28;20065;-36
2020/12/17 01:11:28;;;;;;;15.77;9.52;;;8.80;99.90;;;;;;4995800;28;20117;-37
2020/12/17 01:13:54;;;;;;;13.95;9.20;;;8.80;99.90;;;;;;5000056;28;20041;-34
2020/12/17 01:16:20;;;;;;;18.25;10.20;;;8.80;99.90;;;;;;5002222;28;20031;-36
2020/12/17 01:18:45;;;;;;;18.10;10.43;;;8.80;99.90;;;;;;5009569;28;20033;-36
2020/12/17 01:21:11;;;;;;;16.35;9.55;;;8.80;99.90;;;;;;5009803;28;20481;-35
2020/12/17 01:23:37;;;;;;;21.52;10.55;;;8.80;99.90;;;;;;5012057;28;20041;-35
2020/12/17 01:26:08;;;;;;;18.63;10.63;;;8.80;99.90;;;;;;4992117;28;20029;-36
2020/12/17 01:28:34;;;;;;;15.65;10.80;;;8.80;99.90;;;;;;5010034;28;20346;-36
2020/12/17 01:31:05;;;;;;;17.55;10.65;;;8.80;99.90;;;;;;5011330;28;20602;-36
2020/12/17 01:33:31;;;;;;;18.83;10.60;;;8.80;99.90;;;;;;5012940;28;20030;-35
2020/12/17 01:36:00;;;;;;;17.95;11.23;;;8.80;99.90;;;;;;5011934;28;20046;-36
2020/12/17 01:38:26;;;;;;;18.42;11.13;;;8.80;99.90;;;;;;5032926;28;20022;-35
2020/12/17 01:40:52;;;;;;;20.25;13.00;;;8.80;99.90;;;;;;5014085;28;20119;-35
2020/12/17 01:43:17;;;;;;;19.25;11.70;;;8.70;99.90;;;;;;5024016;28;20369;-35
2020/12/17 01:45:43;;;;;;;20.17;13.15;;;8.70;99.90;;;;;;5029864;28;20112;-35
2020/12/17 01:48:10;;;;;;;19.83;12.52;;;8.70;99.90;;;;;;5013247;28;20040;-35
2020/12/17 01:50:37;;;;;;;26.17;12.45;;;8.70;99.90;;;;;;5028313;28;20037;-35
2020/12/17 01:53:02;;;;;;;20.55;13.95;;;8.70;99.90;;;;;;5028842;28;20033;-35
2020/12/17 01:55:31;;;;;;;21.85;13.30;;;8.70;99.90;;;;;;5015521;28;20120;-35
2020/12/17 01:58:00;;;;;;;20.55;13.60;;;8.70;99.90;;;;;;5031190;28;20025;-35
2020/12/17 02:00:30;;;;;;;19.33;12.60;;;8.70;99.90;;;;;;5016894;28;20403;-35
2020/12/17 02:02:55;;;;;;;19.83;12.43;;;8.60;99.90;;;;;;5031402;28;20120;-35
2020/12/17 02:05:21;;;;;;;20.05;12.15;;;8.70;99.90;;;;;;5012851;28;20534;-35
2020/12/17 02:07:47;;;;;;;18.83;12.32;;;8.70;99.90;;;;;;5024092;28;20034;-34
2020/12/17 02:10:12;;;;;;;21.02;12.02;;;8.70;99.90;;;;;;5018404;28;20116;-35
2020/12/17 02:12:48;;;;;;;18.75;12.25;;;8.70;99.90;;;;;;5028924;28;20038;-35
2020/12/17 02:15:15;;;;;;;17.45;11.65;;;8.70;99.90;;;;;;5024256;28;20036;-36
2020/12/17 02:17:41;;;;;;;19.25;12.50;;;8.70;99.90;;;;;;5030993;28;20040;-35
2020/12/17 02:20:08;;;;;;;24.15;12.52;;;8.70;99.90;;;;;;5031041;28;20033;-35
2020/12/17 02:22:34;;;;;;;21.48;12.38;;;8.70;99.90;;;;;;5028810;28;20104;-35
2020/12/17 02:25:00;;;;;;;17.70;12.50;;;8.60;99.90;;;;;;5024235;28;20112;-36
2020/12/17 02:27:27;;;;;;;19.60;12.82;;;8.60;99.90;;;;;;5027366;28;20029;-34
2020/12/17 02:29:52;;;;;;;21.00;12.20;;;8.60;99.90;;;;;;5013009;28;20079;-35
2020/12/17 02:32:18;;;;;;;20.75;12.90;;;8.60;99.90;;;;;;5013199;28;20033;-35
2020/12/17 02:34:44;;;;;;;17.65;11.20;;;8.60;99.90;;;;;;5010986;28;20155;-34
2020/12/17 02:37:10;;;;;;;20.73;11.95;;;8.60;99.90;;;;;;4989963;28;20062;-35
2020/12/17 02:39:36;;;;;;;22.38;12.63;;;8.60;99.90;;;;;;5001098;28;20110;-35
2020/12/17 02:42:03;;;;;;;22.00;12.70;;;8.50;99.90;;;;;;5011376;28;20033;-36
2020/12/17 02:44:28;;;;;;;20.92;11.90;;;8.60;99.90;;;;;;5010634;28;20053;-36
2020/12/17 02:46:54;;;;;;;17.92;12.45;;;8.60;99.90;;;;;;5010064;28;20046;-36
2020/12/17 02:49:20;;;;;;;22.90;12.43;;;8.50;99.90;;;;;;5009305;28;20030;-35
2020/12/17 02:51:45;;;;;;;23.05;13.68;;;8.50;99.90;;;;;;5006156;28;20113;-36
2020/12/17 02:54:11;;;;;;;21.02;14.23;;;8.50;99.90;;;;;;5005671;28;20036;-36
2020/12/17 02:56:36;;;;;;;23.15;14.32;;;8.60;99.90;;;;;;5007244;28;20042;-36
2020/12/17 02:59:03;;;;;;;20.05;13.10;;;8.60;99.90;;;;;;5026365;28;20506;-35
2020/12/17 03:01:28;;;;;;;26.13;13.82;;;8.60;99.90;;;;;;5008420;28;20038;-35
2020/12/17 03:03:54;;;;;;;22.85;14.25;;;8.60;99.90;;;;;;5010843;28;20044;-35
2020/12/17 03:06:19;;;;;;;21.80;13.38;;;8.60;99.90;;;;;;5010309;28;20030;-35
2020/12/17 03:08:45;;;;;;;22.42;14.77;;;8.50;99.90;;;;;;5009624;28;20029;-35
2020/12/17 03:11:11;;;;;;;21.80;14.23;;;8.50;99.90;;;;;;5021135;28;20065;-35
2020/12/17 03:13:36;;;;;;;18.88;11.82;;;8.60;99.90;;;;;;5010789;28;20439;-35
2020/12/17 03:16:02;;;;;;;19.80;13.27;;;8.50;99.90;;;;;;5010001;28;20038;-35
2020/12/17 03:18:28;;;;;;;22.85;14.70;;;8.50;99.90;;;;;;5010090;28;20040;-33
2020/12/17 03:20:54;;;;;;;22.48;14.63;;;8.50;99.90;;;;;;5024736;28;20149;-36
2020/12/17 03:23:21;;;;;;;26.33;14.82;;;8.50;99.90;;;;;;5006828;28;20034;-34
2020/12/17 03:25:46;;;;;;;21.67;14.05;;;8.40;99.90;;;;;;5008408;28;20034;-35
2020/12/17 03:28:12;;;;;;;23.48;16.25;;;8.50;99.90;;;;;;5011517;28;20056;-35
2020/12/17 03:30:38;;;;;;;23.30;16.52;;;8.40;99.90;;;;;;5009973;28;20030;-35
2020/12/17 03:33:04;;;;;;;22.38;15.40;;;8.50;99.90;;;;;;5009725;28;20033;-35
2020/12/17 03:35:29;;;;;;;22.05;13.88;;;8.50;99.90;;;;;;5013899;28;20046;-36
2020/12/17 03:37:58;;;;;;;22.40;14.25;;;8.50;99.90;;;;;;5011786;28;20041;-35
2020/12/17 03:40:27;;;;;;;21.63;13.98;;;8.50;99.90;;;;;;5013942;28;20056;-36
2020/12/17 03:42:53;;;;;;;24.58;14.40;;;8.40;99.90;;;;;;5010161;28;20026;-34
2020/12/17 03:45:20;;;;;;;21.48;13.02;;;8.40;99.90;;;;;;5011231;28;20026;-35
2020/12/17 03:47:45;;;;;;;21.10;14.07;;;8.40;99.90;;;;;;5009133;28;20030;-36
2020/12/17 03:50:11;;;;;;;20.23;13.30;;;8.40;99.90;;;;;;5009870;28;20096;-35
2020/12/17 03:52:37;;;;;;;24.10;13.48;;;8.40;99.90;;;;;;5009883;28;20038;-35
2020/12/17 03:55:03;;;;;;;23.92;14.20;;;8.40;99.90;;;;;;5024713;28;20032;-35
2020/12/17 03:57:29;;;;;;;21.83;13.80;;;8.40;99.90;;;;;;5011347;28;20371;-35
2020/12/17 03:59:54;;;;;;;23.17;13.15;;;8.40;99.90;;;;;;5009654;28;20026;-36
2020/12/17 04:02:20;;;;;;;22.40;15.20;;;8.40;99.90;;;;;;5005738;28;20342;-35
2020/12/17 04:04:46;;;;;;;22.52;15.20;;;8.40;99.90;;;;;;5009086;28;20120;-36
2020/12/17 04:07:13;;;;;;;25.80;15.30;;;8.40;99.90;;;;;;5009240;28;20038;-35
2020/12/17 04:09:39;;;;;;;25.20;14.73;;;8.40;99.90;;;;;;4994366;28;20035;-35
2020/12/17 04:12:06;;;;;;;20.73;14.32;;;8.40;99.90;;;;;;5010361;28;20038;-35
2020/12/17 04:14:31;;;;;;;24.20;14.60;;;8.40;99.90;;;;;;5009877;28;20032;-35
2020/12/17 04:16:57;;;;;;;25.45;14.82;;;8.40;99.90;;;;;;5009849;28;20030;-35
2020/12/17 04:19:22;;;;;;;25.20;16.25;;;8.40;99.90;;;;;;5011973;28;20026;-34
2020/12/17 04:21:48;;;;;;;27.42;16.27;;;8.30;99.90;;;;;;5014868;28;20026;-36
2020/12/17 04:24:14;;;;;;;28.17;17.85;;;8.30;99.90;;;;;;5009473;28;20042;-35
2020/12/17 04:26:39;;;;;;;26.02;14.70;;;8.30;99.90;;;;;;5013575;28;20040;-36
2020/12/17 04:29:06;;;;;;;25.50;16.02;;;8.40;99.90;;;;;;5013055;28;20466;-35
2020/12/17 04:31:31;;;;;;;26.23;17.33;;;8.30;99.90;;;;;;5014216;28;20040;-35
2020/12/17 04:33:57;;;;;;;25.52;16.35;;;8.40;99.90;;;;;;5012475;28;20025;-36
2020/12/17 04:36:24;;;;;;;26.65;16.75;;;8.30;99.90;;;;;;5010467;28;20100;-34
2020/12/17 04:38:50;;;;;;;23.13;14.43;;;8.40;99.90;;;;;;5012192;28;20034;-36
2020/12/17 04:41:19;;;;;;;29.73;16.83;;;8.30;99.90;;;;;;5013407;28;20033;-35
2020/12/17 04:43:47;;;;;;;24.77;15.32;;;8.30;99.90;;;;;;5012844;28;20041;-35
2020/12/17 04:46:16;;;;;;;25.02;14.60;;;8.40;99.90;;;;;;5012870;28;20037;-35
2020/12/17 04:48:44;;;;;;;24.90;15.95;;;8.40;99.90;;;;;;5011167;28;20034;-36
2020/12/17 04:51:11;;;;;;;26.20;15.95;;;8.30;99.90;;;;;;5008104;28;20037;-36
2020/12/17 04:53:37;;;;;;;28.75;16.05;;;8.40;99.90;;;;;;5012546;28;20037;-36
2020/12/17 04:56:04;;;;;;;28.92;18.45;;;8.30;99.90;;;;;;5011525;28;20041;-35
2020/12/17 04:58:32;;;;;;;30.08;18.65;;;8.30;99.90;;;;;;5008375;28;20045;-36
2020/12/17 05:00:58;;;;;;;26.85;17.02;;;8.40;99.90;;;;;;5004036;28;20029;-36
2020/12/17 05:03:32;;;;;;;27.73;16.58;;;8.40;99.90;;;;;;5012888;28;20387;-34
2020/12/17 05:06:03;;;;;;;31.63;18.65;;;8.40;99.90;;;;;;5012556;28;20026;-37
2020/12/17 05:08:29;;;;;;;27.60;17.67;;;8.40;99.90;;;;;;5012312;28;20026;-37
2020/12/17 05:10:54;;;;;;;28.40;18.50;;;8.40;99.90;;;;;;5013588;28;20034;-36
2020/12/17 05:13:20;;;;;;;29.00;18.77;;;8.40;99.90;;;;;;5011965;28;20037;-36
2020/12/17 05:15:45;;;;;;;31.38;18.08;;;8.40;99.90;;;;;;5009042;28;20053;-36
2020/12/17 05:18:11;;;;;;;28.05;17.60;;;8.40;99.90;;;;;;5012454;28;20033;-35
2020/12/17 05:20:39;;;;;;;32.72;18.85;;;8.40;99.90;;;;;;5011474;28;20030;-36
2020/12/17 05:23:05;;;;;;;28.10;16.40;;;8.40;99.90;;;;;;5011620;28;20401;-37
2020/12/17 05:25:31;;;;;;;29.55;16.92;;;8.50;99.90;;;;;;5016982;28;20101;-35
2020/12/17 05:28:00;;;;;;;32.92;17.55;;;8.50;99.90;;;;;;5012974;28;20383;-35
2020/12/17 05:30:33;;;;;;;32.08;18.08;;;8.50;99.90;;;;;;5001444;28;20030;-36
2020/12/17 05:33:00;;;;;;;30.65;19.42;;;8.40;99.90;;;;;;4997346;28;20034;-38
2020/12/17 05:35:35;;;;;;;31.58;19.85;;;8.40;99.90;;;;;;5012346;28;20111;-37
2020/12/17 05:38:04;;;;;;;30.65;19.75;;;8.50;99.90;;;;;;5001745;28;20064;-35
2020/12/17 05:40:41;;;;;;;24.95;15.43;;;8.50;99.90;;;;;;5014633;28;20045;-36
2020/12/17 05:43:07;;;;;;;34.97;20.35;;;8.50;99.90;;;;;;5005954;28;20042;-36
2020/12/17 05:45:34;;;;;;;32.35;18.60;;;8.50;99.90;;;;;;5015171;28;20492;-36
2020/12/17 05:48:19;;;;;;;27.65;19.23;;;8.50;99.90;;;;;;5006022;28;20138;-34
2020/12/17 05:50:49;;;;;;;32.08;17.63;;;8.50;99.90;;;;;;5010388;28;20040;-36
2020/12/17 05:53:16;;;;;;;32.83;19.65;;;8.50;99.90;;;;;;5017265;28;20393;-36
2020/12/17 05:55:42;;;;;;;33.05;18.98;;;8.50;99.90;;;;;;5016920;28;20377;-35
2020/12/17 05:58:08;;;;;;;32.13;21.05;;;8.50;99.90;;;;;;4994840;28;20042;-35
2020/12/17 06:00:34;;;;;;;29.17;18.88;;;8.50;99.90;;;;;;4995658;28;20130;-36
2020/12/17 06:02:59;;;;;;;32.15;17.63;;;8.50;99.90;;;;;;5011610;28;20112;-35
2020/12/17 06:05:27;;;;;;;27.42;16.75;;;8.50;99.90;;;;;;5009784;28;20046;-36
2020/12/17 06:07:58;;;;;;;29.05;17.05;;;8.50;99.90;;;;;;5006686;28;20036;-36
2020/12/17 06:10:32;;;;;;;26.58;15.00;;;8.50;99.90;;;;;;5015188;28;20029;-34
2020/12/17 06:13:00;;;;;;;42.30;14.38;;;8.50;99.90;;;;;;5007571;28;20289;-35
2020/12/17 06:15:27;;;;;;;32.33;16.08;;;8.50;99.90;;;;;;5008664;28;20030;-35
2020/12/17 06:17:54;;;;;;;22.95;13.82;;;8.50;99.90;;;;;;5011857;28;20030;-35
2020/12/17 06:20:25;;;;;;;28.13;17.10;;;8.50;99.90;;;;;;5002160;28;20034;-34
2020/12/17 06:22:57;;;;;;;30.85;16.52;;;8.50;99.90;;;;;;5006334;28;20164;-48
2020/12/17 06:25:25;;;;;;;28.30;16.63;;;8.50;99.90;;;;;;4986440;28;20051;-48
2020/12/17 06:27:51;;;;;;;26.80;16.20;;;8.50;99.90;;;;;;4996211;28;20035;-48
2020/12/17 06:30:21;;;;;;;27.08;14.20;;;8.50;99.90;;;;;;5001769;28;20026;-46
2020/12/17 06:32:47;;;;;;;30.65;15.32;;;8.60;99.90;;;;;;5008616;28;20030;-48
2020/12/17 06:35:24;;;;;;;22.23;12.55;;;8.50;99.90;;;;;;5013527;28;20467;-48
2020/12/17 06:37:51;;;;;;;27.88;12.45;;;8.50;99.90;;;;;;5027782;28;20129;-47
2020/12/17 06:40:30;;;;;;;29.83;15.05;;;8.50;99.90;;;;;;5026782;28;20025;-48
2020/12/17 06:42:55;;;;;;;22.85;11.77;;;8.50;99.90;;;;;;5022544;28;20034;-48
2020/12/17 06:45:32;;;;;;;26.80;16.27;;;8.40;99.90;;;;;;5019451;28;20030;-47
2020/12/17 06:47:58;;;;;;;25.25;14.10;;;8.40;99.90;;;;;;5023093;28;20028;-48
2020/12/17 06:50:30;;;;;;;26.83;16.00;;;8.40;99.90;;;;;;5024426;28;20257;-48
2020/12/17 06:53:12;;;;;;;27.85;14.93;;;8.40;99.90;;;;;;5027125;28;20527;-48
2020/12/17 06:55:41;;;;;;;26.73;14.80;;;8.40;99.90;;;;;;5022239;28;20033;-48
2020/12/17 06:58:07;;;;;;;27.60;13.30;;;8.30;99.90;;;;;;5022274;28;20025;-48
2020/12/17 07:00:33;;;;;;;21.73;12.50;;;8.30;99.90;;;;;;5022594;28;20133;-48
2020/12/17 07:02:59;;;;;;;25.60;13.95;;;8.30;99.90;;;;;;5016764;28;20091;-48
2020/12/17 07:05:36;;;;;;;28.85;14.05;;;8.30;99.90;;;;;;5024058;28;20474;-48
2020/12/17 07:08:04;;;;;;;29.10;13.57;;;8.40;99.90;;;;;;5022699;28;20030;-47
2020/12/17 07:10:33;;;;;;;25.05;10.65;;;8.40;99.90;;;;;;5027220;28;20044;-48
2020/12/17 07:12:59;;;;;;;21.77;9.05;;;8.40;99.90;;;;;;5021750;28;20451;-47
2020/12/17 07:15:38;;;;;;;24.58;12.75;;;8.50;99.90;;;;;;5015053;28;20116;-48
2020/12/17 07:18:23;;;;;;;22.17;9.50;;;8.40;99.90;;;;;;5021432;28;20021;-49
2020/12/17 07:21:02;;;;;;;22.20;10.63;;;8.50;99.90;;;;;;5021815;28;20037;-49
2020/12/17 07:23:37;;;;;;;21.67;10.18;;;8.40;99.90;;;;;;5005313;28;20041;-49
2020/12/17 07:26:14;;;;;;;24.50;13.70;;;8.50;99.90;;;;;;5019961;28;20044;-48
2020/12/17 07:28:40;;;;;;;24.23;8.98;;;8.50;99.90;;;;;;5026861;28;20040;-48
2020/12/17 07:31:06;;;;;;;18.25;8.85;;;8.40;99.90;;;;;;5009489;28;20030;-48
2020/12/17 07:33:38;;;;;;;15.82;8.05;;;8.40;99.90;;;;;;5025922;28;20025;-48
2020/12/17 07:36:05;;;;;;;20.67;7.80;;;8.40;99.90;;;;;;5013938;28;20399;-48
2020/12/17 07:38:31;;;;;;;20.98;9.07;;;8.30;99.90;;;;;;5003770;28;20038;-48
2020/12/17 07:40:56;;;;;;;18.95;8.45;;;8.30;99.90;;;;;;4995731;28;20026;-46
2020/12/17 07:43:24;;;;;;;23.38;10.65;;;8.30;99.90;;;;;;5000760;28;20041;-47
2020/12/17 07:45:57;;;;;;;24.52;9.13;;;8.20;99.90;;;;;;5007874;28;20076;-47
2020/12/17 07:48:31;;;;;;;20.92;6.03;;;8.20;99.90;;;;;;5022370;28;20110;-48
2020/12/17 07:50:57;;;;;;;27.60;9.00;;;8.20;99.90;;;;;;5004650;28;20030;-47
2020/12/17 07:53:23;;;;;;;16.30;8.82;;;8.20;99.90;;;;;;5015117;28;20100;-47
2020/12/17 07:55:53;;;;;;;21.02;9.77;;;8.10;99.90;;;;;;5001829;28;20058;-48
2020/12/17 07:58:18;;;;;;;16.90;8.88;;;8.10;99.90;;;;;;5012431;28;20030;-47
2020/12/17 08:00:44;;;;;;;24.00;9.32;;;8.10;99.90;;;;;;5013957;28;20036;-48
2020/12/17 08:03:10;;;;;;;27.15;10.18;;;8.10;99.90;;;;;;5008268;28;20141;-48
2020/12/17 08:05:36;;;;;;;14.85;7.45;;;8.10;99.90;;;;;;5018518;28;20652;-48
2020/12/17 08:08:02;;;;;;;18.83;8.20;;;8.10;99.90;;;;;;5013982;28;20030;-48
2020/12/17 08:10:28;;;;;;;22.08;9.90;;;8.10;99.90;;;;;;4998959;28;20057;-48
2020/12/17 08:12:53;;;;;;;16.75;9.57;;;8.10;99.90;;;;;;5010974;28;20057;-48
2020/12/17 08:15:20;;;;;;;18.40;8.50;;;8.00;99.90;;;;;;5013291;28;20033;-48
2020/12/17 08:17:48;;;;;;;26.63;11.07;;;8.00;99.90;;;;;;5004241;28;20025;-48
2020/12/17 08:20:16;;;;;;;25.92;9.77;;;8.00;99.90;;;;;;5010879;28;20029;-43
2020/12/17 08:22:46;;;;;;;20.42;8.68;;;8.00;99.90;;;;;;4995591;28;20089;-48
2020/12/17 08:25:22;;;;;;;25.00;9.77;;;7.90;99.90;;;;;;5016358;28;20037;-48
2020/12/17 08:27:51;;;;;;;22.33;9.48;;;7.90;99.90;;;;;;4995876;28;20089;-48
2020/12/17 08:30:20;;;;;;;19.42;9.23;;;7.90;99.90;;;;;;4996749;28;20061;-48
2020/12/17 08:32:48;;;;;;;19.15;7.78;;;7.90;99.90;;;;;;4998725;28;20104;-48
2020/12/17 08:35:25;;;;;;;22.77;11.48;;;7.90;99.90;;;;;;4998554;28;20475;-48
2020/12/17 08:37:56;;;;;;;16.92;6.38;;;7.90;99.90;;;;;;4997326;28;20390;-48
2020/12/17 08:40:29;;;;;;;16.55;8.32;;;8.00;99.90;;;;;;5006529;28;20022;-48
2020/12/17 08:43:10;;;;;;;18.33;7.32;;;8.00;99.90;;;;;;5004917;28;20045;-48
2020/12/17 08:45:40;;;;;;;22.90;8.93;;;8.00;99.90;;;;;;5004191;28;20596;-48
2020/12/17 08:48:13;;;;;;;22.02;9.15;;;8.00;99.90;;;;;;4987776;28;20030;-48
2020/12/17 08:50:39;;;;;;;18.73;8.85;;;8.00;99.90;;;;;;4994181;28;20442;-49
2020/12/17 08:53:18;;;;;;;18.67;7.65;;;8.00;99.90;;;;;;4998211;28;20501;-48
2020/12/17 08:55:44;;;;;;;22.92;10.20;;;8.10;99.90;;;;;;5005119;28;20030;-35
2020/12/17 08:58:10;;;;;;;28.85;8.40;;;8.10;99.90;;;;;;5012381;28;20038;-35
2020/12/17 09:00:35;;;;;;;25.13;9.07;;;8.10;99.90;;;;;;5009538;28;20036;-36
2020/12/17 09:03:02;;;;;;;25.38;8.50;;;8.20;99.90;;;;;;5006933;28;20030;-35
2020/12/17 09:05:27;;;;;;;26.17;8.70;;;8.20;99.90;;;;;;4993953;28;20112;-36
2020/12/17 09:07:53;;;;;;;12.60;5.43;;;8.20;99.90;;;;;;5012756;28;20192;-46
2020/12/17 09:10:18;;;;;;;24.70;9.02;;;8.30;99.90;;;;;;5005644;28;20092;-48
2020/12/17 09:12:44;;;;;;;31.10;8.30;;;8.30;99.90;;;;;;5012315;28;20133;-47
2020/12/17 09:15:12;;;;;;;14.13;4.47;;;8.40;99.90;;;;;;5011858;28;20030;-48
2020/12/17 09:17:39;;;;;;;25.23;8.13;;;8.30;99.90;;;;;;5008528;28;20037;-48
2020/12/17 09:20:14;;;;;;;21.80;7.00;;;8.30;99.90;;;;;;4991996;28;20034;-48
2020/12/17 09:22:40;;;;;;;23.95;6.00;;;8.40;99.90;;;;;;5013697;28;20022;-48
2020/12/17 09:25:07;;;;;;;19.58;5.65;;;8.40;99.90;;;;;;5013251;28;20056;-48
2020/12/17 09:27:40;;;;;;;16.77;5.78;;;8.50;99.90;;;;;;5006647;28;20030;-48
2020/12/17 09:30:13;;;;;;;18.98;6.20;;;8.60;99.90;;;;;;5012538;28;21414;-48
2020/12/17 09:32:43;;;;;;;14.45;4.93;;;8.70;99.90;;;;;;5007059;28;20034;-48
2020/12/17 09:35:12;;;;;;;20.23;7.30;;;8.70;99.90;;;;;;4995085;28;20108;-47
2020/12/17 09:37:55;;;;;;;16.67;5.07;;;8.80;99.90;;;;;;5008237;28;20029;-48
2020/12/17 09:40:23;;;;;;;22.35;5.45;;;8.80;99.90;;;;;;5007470;28;20091;-48
2020/12/17 09:42:48;;;;;;;20.73;5.55;;;8.80;99.90;;;;;;5011665;28;20095;-48
2020/12/17 09:45:16;;;;;;;30.55;5.35;;;8.80;99.90;;;;;;5006449;28;20037;-48
2020/12/17 09:47:43;;;;;;;10.98;4.10;;;8.80;99.90;;;;;;4996155;28;20029;-48
2020/12/17 09:50:17;;;;;;;19.60;5.93;;;8.70;99.90;;;;;;5007859;28;20034;-48
2020/12/17 09:52:45;;;;;;;17.30;5.55;;;8.70;99.90;;;;;;5007744;28;20037;-48
2020/12/17 09:55:12;;;;;;;18.63;4.03;;;8.70;99.90;;;;;;4996471;28;20041;-48
2020/12/17 09:57:43;;;;;;;17.38;4.85;;;8.60;99.90;;;;;;5001854;28;20486;-48
2020/12/17 10:00:14;;;;;;;20.90;4.30;;;8.70;99.90;;;;;;5007279;28;20340;-47
2020/12/17 10:02:41;;;;;;;19.48;5.78;;;8.80;99.90;;;;;;5022122;28;20030;-48
2020/12/17 10:05:08;;;;;;;31.10;4.85;;;8.80;99.90;;;;;;5009548;28;20065;-47
2020/12/17 10:07:34;;;;;;;24.60;5.25;;;8.80;99.90;;;;;;5009930;28;20123;-47
2020/12/17 10:09:59;;;;;;;22.17;4.68;;;8.80;99.90;;;;;;5010768;28;20451;-47
2020/12/17 10:12:25;;;;;;;11.85;3.63;;;8.80;99.90;;;;;;5011302;28;20100;-47
2020/12/17 10:14:51;;;;;;;17.98;5.97;;;8.80;99.90;;;;;;5006813;28;20428;-48
2020/12/17 10:17:17;;;;;;;11.73;3.08;;;8.90;99.90;;;;;;5010793;28;20129;-48
2020/12/17 10:19:42;;;;;;;19.65;3.45;;;8.80;99.90;;;;;;5004672;28;20049;-47
2020/12/17 10:22:08;;;;;;;17.67;4.85;;;8.70;99.90;;;;;;5018455;28;20033;-48
2020/12/17 10:24:34;;;;;;;17.67;4.35;;;8.80;99.90;;;;;;5011688;28;20045;-48
2020/12/17 10:27:01;;;;;;;12.90;4.38;;;8.70;99.90;;;;;;5005564;28;20029;-48
2020/12/17 10:29:28;;;;;;;16.08;5.57;;;8.70;99.90;;;;;;4997961;28;20029;-48
2020/12/17 10:31:55;;;;;;;17.08;4.47;;;8.70;99.90;;;;;;4990835;28;20037;-46
2020/12/17 10:34:21;;;;;;;25.38;4.65;;;8.80;99.90;;;;;;5004307;28;20041;-48
2020/12/17 10:36:46;;;;;;;17.58;4.88;;;8.90;99.90;;;;;;5031806;28;20049;-48
2020/12/17 10:39:13;;;;;;;19.17;4.57;;;8.90;99.90;;;;;;5032822;28;20080;-48
2020/12/17 10:41:39;;;;;;;26.33;5.38;;;8.90;99.90;;;;;;5030740;28;20030;-48
2020/12/17 10:44:05;;;;;;;19.00;5.05;;;9.00;99.90;;;;;;5024406;28;20037;-47
2020/12/17 10:46:32;;;;;;;15.52;4.65;;;9.00;99.90;;;;;;5015843;28;20061;-48
2020/12/17 10:48:58;;;;;;;22.00;5.28;;;9.00;99.90;;;;;;5022339;28;20030;-47
2020/12/17 10:51:24;;;;;;;12.15;3.55;;;9.00;99.90;;;;;;5013903;28;20046;-46
2020/12/17 10:53:50;;;;;;;17.58;5.60;;;8.90;99.90;;;;;;5038810;28;20136;-48
2020/12/17 10:56:15;;;;;;;22.23;6.35;;;8.90;99.90;;;;;;5014218;28;20033;-48
2020/12/17 10:58:42;;;;;;;15.98;5.10;;;8.80;99.90;;;;;;5018253;28;20034;-48
2020/12/17 11:01:08;;;;;;;24.13;5.07;;;8.90;99.90;;;;;;5012392;28;20087;-47
2020/12/17 11:03:34;;;;;;;17.38;5.70;;;8.90;99.90;;;;;;5018185;28;20458;-48
2020/12/17 11:05:59;;;;;;;17.70;5.78;;;8.90;99.90;;;;;;5024648;28;20068;-48
2020/12/17 11:08:28;;;;;;;23.33;5.55;;;8.90;99.90;;;;;;5012895;28;20378;-46
2020/12/17 11:10:54;;;;;;;19.27;5.15;;;9.00;99.90;;;;;;5020896;28;20033;-48
2020/12/17 11:13:20;;;;;;;14.95;4.88;;;9.20;99.90;;;;;;5027366;28;20071;-48
2020/12/17 11:15:48;;;;;;;13.57;4.40;;;9.30;99.90;;;;;;5022360;28;20048;-48
2020/12/17 11:18:14;;;;;;;12.98;3.25;;;9.30;99.90;;;;;;5023681;28;20108;-48
2020/12/17 11:20:41;;;;;;;17.77;4.72;;;9.20;99.90;;;;;;5014504;28;20032;-48
2020/12/17 11:23:07;;;;;;;12.45;3.70;;;9.20;99.90;;;;;;5016818;28;20418;-48
2020/12/17 11:25:39;;;;;;;16.88;4.38;;;9.20;99.90;;;;;;5025007;28;20100;-48
2020/12/17 11:28:06;;;;;;;20.80;7.05;;;9.10;99.90;;;;;;5011934;28;20088;-48
2020/12/17 11:30:35;;;;;;;15.63;5.65;;;9.20;99.90;;;;;;5014979;28;20022;-48
2020/12/17 11:33:02;;;;;;;15.57;6.05;;;9.20;99.90;;;;;;5020256;28;20025;-47
2020/12/17 11:35:28;;;;;;;11.50;3.38;;;9.40;99.90;;;;;;5027990;28;20076;-48
2020/12/17 11:37:53;;;;;;;19.52;5.03;;;9.50;99.90;;;;;;5025772;28;20041;-48
2020/12/17 11:40:23;;;;;;;13.73;6.30;;;9.50;99.90;;;;;;5027257;28;20045;-48
2020/12/17 11:42:49;;;;;;;18.27;4.20;;;9.40;99.90;;;;;;5014534;28;20041;-47
2020/12/17 11:45:15;;;;;;;19.30;4.50;;;9.30;99.90;;;;;;5009384;28;20069;-48
2020/12/17 11:47:41;;;;;;;11.35;3.65;;;9.30;99.90;;;;;;5029310;28;20060;-48
2020/12/17 11:50:07;;;;;;;13.55;4.07;;;9.30;99.90;;;;;;5041282;28;20029;-48
2020/12/17 11:52:33;;;;;;;15.75;4.40;;;9.20;99.90;;;;;;5025775;28;20032;-48
2020/12/17 11:55:05;;;;;;;15.70;5.28;;;9.20;99.90;;;;;;5032044;28;20104;-48
2020/12/17 11:57:31;;;;;;;11.63;4.50;;;9.30;99.90;;;;;;5028364;28;20116;-49
2020/12/17 11:59:57;;;;;;;27.95;4.75;;;9.30;99.90;;;;;;5030683;28;20546;-47
2020/12/17 12:02:22;;;;;;;15.98;5.43;;;9.30;99.90;;;;;;5026499;28;20128;-48
2020/12/17 12:04:48;;;;;;;12.63;4.43;;;9.30;99.90;;;;;;5030274;28;20056;-48
2020/12/17 12:07:13;;;;;;;12.27;4.82;;;9.20;99.90;;;;;;5031213;28;20040;-48
2020/12/17 12:09:39;;;;;;;24.77;5.97;;;9.20;99.90;;;;;;5032111;28;20061;-48
2020/12/17 12:12:05;;;;;;;9.98;4.38;;;9.10;99.90;;;;;;5030380;28;20522;-48
2020/12/17 12:14:33;;;;;;;11.52;3.50;;;9.10;99.90;;;;;;5029407;28;20355;-48
2020/12/17 12:16:59;;;;;;;20.13;5.57;;;9.10;99.90;;;;;;5022736;28;20491;-48
2020/12/17 12:19:25;;;;;;;15.05;4.95;;;9.10;99.90;;;;;;5028470;28;20105;-48
2020/12/17 12:21:51;;;;;;;15.00;5.50;;;9.10;99.90;;;;;;5030570;28;20036;-47
2020/12/17 12:24:18;;;;;;;14.50;4.93;;;9.10;99.90;;;;;;5030980;28;20065;-49
2020/12/17 12:26:44;;;;;;;17.70;5.22;;;9.10;99.90;;;;;;5026766;28;20060;-49
2020/12/17 12:29:10;;;;;;;25.05;6.55;;;9.20;99.90;;;;;;5043983;28;20025;-48
2020/12/17 12:31:35;;;;;;;16.45;5.55;;;9.20;99.90;;;;;;5020492;28;20183;-48
2020/12/17 12:34:01;;;;;;;11.40;3.88;;;9.10;99.90;;;;;;5015555;28;20529;-47
2020/12/17 12:36:27;;;;;;;21.02;5.65;;;9.20;99.90;;;;;;5037697;28;20041;-48
2020/12/17 12:38:52;;;;;;;16.75;5.30;;;9.20;99.90;;;;;;5041270;28;20029;-47
2020/12/17 12:41:19;;;;;;;15.35;4.00;;;9.20;99.90;;;;;;5033643;28;20033;-48
2020/12/17 12:43:44;;;;;;;18.25;5.20;;;9.30;99.90;;;;;;5035375;28;20038;-36